Alexandria Dawn — WDI4686 — position and weather

sailwx.info

Track history (hours):
 
Tides and Currents Weather Stations Pressure Air Temp Water Temp Dewpoint Dewpoint Depression Visibility Wind Speed Wind Dir Waves Ship Positions

Alexandria Dawn

Owner: Helmar Fishing, Inc., Forked River, NJ. More information available from US FCC via Universal Licensing System and Coast Guard Vessel Documentation Center.

Last reported at 2018-Jul-13 12:32 UTC. Time now 2018-Jul-17 05:48 UTC.
Position N 39°28' W 071°52'.

Length 22 m.

Type: Fishing. MMSI: 367701040.

Date/timePositionNaut miles runAvg speedWind from/ knotsBaromVisibWave heightAir tempDewpointWater temp
2018-Jul-13 12:32N 39°28' W 071°52'0 6.7
2018-Jul-13 12:30N 39°28' W 071°53'4 7.0
2018-Jul-13 11:54N 39°26' W 071°58'3 7.1
2018-Jul-13 11:28N 39°25' W 072°01'5 6.7
2018-Jul-13 10:45N 39°24' W 072°08'2 6.7
2018-Jul-13 10:26N 39°24' W 072°10'3 6.8
2018-Jul-13 10:00N 39°25' W 072°14'3 6.8
2018-Jul-13 09:30N 39°26' W 072°18'4 7.1
2018-Jul-13 08:55N 39°27' W 072°23'3 7.4
2018-Jul-13 08:28N 39°28' W 072°28'3 7.4
2018-Jul-13 08:00N 39°29' W 072°32'4 6.8
2018-Jul-13 07:28N 39°30' W 072°36'3 6.5
2018-Jul-13 06:59N 39°31' W 072°40'3 6.5
2018-Jul-13 06:28N 39°32' W 072°44'3 6.7
2018-Jul-13 06:00N 39°33' W 072°48'4 7.3
2018-Jul-13 05:26N 39°35' W 072°53'4 7.8
2018-Jul-13 04:59N 39°35' W 072°57'4 7.8
2018-Jul-13 04:30N 39°36' W 073°02'4 7.5
2018-Jul-13 04:00N 39°36' W 073°07'4 8.0
2018-Jul-13 03:30N 39°37' W 073°12'4 7.9
2018-Jul-13 03:00N 39°38' W 073°17'4 7.9
2018-Jul-13 02:30N 39°39' W 073°22'4 7.8
2018-Jul-13 01:59N 39°40' W 073°27'4 7.5
2018-Jul-13 01:30N 39°40' W 073°32'4 7.4
2018-Jul-13 01:00N 39°41' W 073°37'4 7.3
2018-Jul-13 00:30N 39°42' W 073°41'9 7.2
2018-Jul-12 23:19N 39°44' W 073°52'2 7.0
2018-Jul-12 22:59N 39°44' W 073°55'3 6.9
2018-Jul-12 22:30N 39°45' W 073°59'3 6.9
2018-Jul-12 22:00N 39°46' W 074°04'2 4.8
2018-Jul-12 21:29N 39°45' W 074°07'0 0.5
2018-Jul-12 21:00N 39°45' W 074°07'0 0.0
2018-Jul-12 20:30N 39°45' W 074°07'0 0.0
2018-Jul-12 20:00N 39°45' W 074°07'0 0.0
2018-Jul-12 19:30N 39°45' W 074°07'0 0.0
2018-Jul-12 19:00N 39°45' W 074°07'0 0.0
2018-Jul-12 18:24N 39°45' W 074°07'0 0.0
2018-Jul-12 18:00N 39°45' W 074°07'0 0.0
2018-Jul-12 17:30N 39°45' W 074°07'0 0.0
2018-Jul-12 16:54N 39°45' W 074°07'0 0.0
2018-Jul-12 16:30N 39°45' W 074°07'0 0.0
2018-Jul-12 15:57N 39°45' W 074°07'0 0.0
2018-Jul-12 15:27N 39°45' W 074°07'0 0.0
2018-Jul-12 14:57N 39°45' W 074°07'0 0.1
2018-Jul-12 14:29N 39°45' W 074°07'0 0.0
2018-Jul-12 13:59N 39°45' W 074°07'0 0.0
2018-Jul-12 13:23N 39°45' W 074°07'0 0.0
2018-Jul-12 13:00N 39°45' W 074°07'0 0.1
2018-Jul-12 12:26N 39°45' W 074°07'0 0.0
2018-Jul-12 11:59N 39°45' W 074°07'0 0.0
2018-Jul-12 11:23N 39°45' W 074°07'0 0.0
2018-Jul-12 10:59N 39°45' W 074°07'0 0.0
2018-Jul-12 10:29N 39°45' W 074°07'0 0.0
2018-Jul-12 09:47N 39°45' W 074°07'0 0.0
2018-Jul-12 09:29N 39°45' W 074°07'0 0.0
2018-Jul-12 08:56N 39°45' W 074°07'0 0.0
2018-Jul-12 08:29N 39°45' W 074°07'0 0.0
2018-Jul-12 07:59N 39°45' W 074°07'0 0.0
2018-Jul-12 07:23N 39°45' W 074°07'0 0.0
2018-Jul-12 06:59N 39°45' W 074°07'0 0.0
2018-Jul-12 06:29N 39°45' W 074°07'0 0.0
2018-Jul-12 05:59N 39°45' W 074°07'0 0.0
2018-Jul-12 05:29N 39°45' W 074°07'0 0.0
2018-Jul-12 04:59N 39°45' W 074°07'0 0.0
2018-Jul-12 04:23N 39°45' W 074°07'0 0.0
2018-Jul-12 03:59N 39°45' W 074°07'0 0.0
2018-Jul-12 03:29N 39°45' W 074°07'0 0.0
2018-Jul-12 02:59N 39°45' W 074°07'0 0.0
2018-Jul-12 02:29N 39°45' W 074°07'0 0.0
2018-Jul-12 01:59N 39°45' W 074°07'0 0.0
2018-Jul-12 01:23N 39°45' W 074°07'0 0.0
2018-Jul-12 00:47N 39°45' W 074°07'0 0.0
2018-Jul-12 00:29N 39°45' W 074°07'0 0.0
2018-Jul-11 23:53N 39°45' W 074°07'0 0.0
2018-Jul-11 23:29N 39°45' W 074°07'0 0.0
2018-Jul-11 22:53N 39°45' W 074°07'0 0.0
2018-Jul-11 22:29N 39°45' W 074°07'0 0.0
2018-Jul-11 21:59N 39°45' W 074°07'0 0.0
2018-Jul-11 21:29N 39°45' W 074°07'0 0.0
2018-Jul-11 20:53N 39°45' W 074°07'0 0.0
2018-Jul-11 20:29N 39°45' W 074°07'0 0.0
2018-Jul-11 19:59N 39°45' W 074°07'0 0.0
2018-Jul-11 19:29N 39°45' W 074°07'0 0.0
2018-Jul-11 18:59N 39°45' W 074°07'0 0.0
2018-Jul-11 18:29N 39°45' W 074°07'0 0.0
2018-Jul-11 17:53N 39°45' W 074°07'0 0.0
2018-Jul-11 17:17N 39°45' W 074°07'0 0.0
2018-Jul-11 16:59N 39°45' W 074°07'0 0.0
2018-Jul-11 16:23N 39°45' W 074°07'0 0.0
2018-Jul-11 15:41N 39°45' W 074°07'0 0.0
2018-Jul-11 15:29N 39°45' W 074°07'0 0.0
2018-Jul-11 14:29N 39°45' W 074°07'0 0.0
2018-Jul-11 13:59N 39°45' W 074°07'0 0.0
2018-Jul-11 13:23N 39°45' W 074°07'0 0.0
2018-Jul-11 12:53N 39°45' W 074°07'0 0.0
2018-Jul-11 12:29N 39°45' W 074°07'0 0.0
2018-Jul-11 11:59N 39°45' W 074°07'0 0.0
2018-Jul-11 11:29N 39°45' W 074°07'0 0.0
2018-Jul-11 10:59N 39°45' W 074°07'0 0.0
2018-Jul-11 10:11N 39°45' W 074°07'0 0.0
2018-Jul-11 09:59N 39°45' W 074°07'0 0.0
2018-Jul-11 09:17N 39°45' W 074°07'0 0.0
2018-Jul-11 08:59N 39°45' W 074°07'0 0.0
2018-Jul-11 08:23N 39°45' W 074°07'0 0.0
2018-Jul-11 07:59N 39°45' W 074°07'0 0.0
2018-Jul-11 07:29N 39°45' W 074°07'0 0.0
2018-Jul-11 06:59N 39°45' W 074°07'0 0.0
2018-Jul-11 06:29N 39°45' W 074°07'0 0.0
2018-Jul-11 05:47N 39°45' W 074°07'0 0.0
2018-Jul-11 05:26N 39°45' W 074°07'0 0.0
2018-Jul-11 04:59N 39°45' W 074°07'0 0.0
2018-Jul-11 04:29N 39°45' W 074°07'0 0.0
2018-Jul-11 03:59N 39°45' W 074°07'0 0.0
2018-Jul-11 03:23N 39°45' W 074°07'0 0.0
2018-Jul-11 02:59N 39°45' W 074°07'0 0.0
2018-Jul-11 02:29N 39°45' W 074°07'0 0.0
2018-Jul-11 01:59N 39°45' W 074°07'0 0.0
2018-Jul-11 01:29N 39°45' W 074°07'0 0.0
2018-Jul-11 00:59N 39°45' W 074°07'0 0.0
2018-Jul-11 00:29N 39°45' W 074°07'0 0.0
2018-Jul-10 23:47N 39°45' W 074°07'0 0.0
2018-Jul-10 23:29N 39°45' W 074°07'0 0.0
2018-Jul-10 22:59N 39°45' W 074°07'0 0.0
2018-Jul-10 22:29N 39°45' W 074°07'0 0.0
2018-Jul-10 21:59N 39°45' W 074°07'0 0.0
2018-Jul-10 21:29N 39°45' W 074°07'0 0.0
2018-Jul-10 20:59N 39°45' W 074°07'0 0.0
2018-Jul-10 20:29N 39°45' W 074°07'0 0.0
2018-Jul-10 19:59N 39°45' W 074°07'0 0.0
2018-Jul-10 19:29N 39°45' W 074°07'0 0.0
2018-Jul-10 18:47N 39°45' W 074°07'0 0.0
2018-Jul-10 18:29N 39°45' W 074°07'0 0.0
2018-Jul-10 17:59N 39°45' W 074°07'0 0.0
2018-Jul-10 17:17N 39°45' W 074°07'0 0.0
2018-Jul-10 16:59N 39°45' W 074°07'0 0.0
2018-Jul-10 16:29N 39°45' W 074°07'0 0.0
2018-Jul-10 14:59N 39°45' W 074°07'0 0.0
2018-Jul-10 14:29N 39°45' W 074°07'0 0.0
2018-Jul-10 13:56N 39°45' W 074°07'0 0.0
2018-Jul-10 13:26N 39°45' W 074°07'0 0.0
2018-Jul-10 12:56N 39°45' W 074°07'0 0.0
2018-Jul-10 12:14N 39°45' W 074°07'0 0.0
2018-Jul-10 11:56N 39°45' W 074°07'0 0.0
2018-Jul-10 11:26N 39°45' W 074°07'0 0.0
2018-Jul-10 10:50N 39°45' W 074°07'0 0.0
2018-Jul-10 10:26N 39°45' W 074°07'0 0.0
2018-Jul-10 09:59N 39°45' W 074°07'0 0.0
2018-Jul-10 09:29N 39°45' W 074°07'0 0.0
2018-Jul-10 08:59N 39°45' W 074°07'0 0.0
2018-Jul-10 08:26N 39°45' W 074°07'0 0.0
2018-Jul-10 07:53N 39°45' W 074°07'0 0.0
2018-Jul-10 07:26N 39°45' W 074°07'0 0.0
2018-Jul-10 06:44N 39°45' W 074°07'0 0.0
2018-Jul-10 06:26N 39°45' W 074°07'0 0.0
2018-Jul-10 05:56N 39°45' W 074°07'0 0.0
2018-Jul-10 05:20N 39°45' W 074°07'0 0.0
2018-Jul-10 04:56N 39°45' W 074°07'0 0.0
2018-Jul-10 04:26N 39°45' W 074°07'0 0.0
2018-Jul-10 03:59N 39°45' W 074°07'0 0.0
2018-Jul-10 03:26N 39°45' W 074°07'0 0.0
2018-Jul-10 02:32N 39°45' W 074°07'0 0.0
2018-Jul-10 02:08N 39°45' W 074°07'0 0.0
2018-Jul-10 01:56N 39°45' W 074°07'0 0.0
2018-Jul-10 01:08N 39°45' W 074°07'0 0.0
2018-Jul-10 00:56N 39°45' W 074°07'0 0.0
2018-Jul-10 00:26N 39°45' W 074°07'0 0.0
2018-Jul-09 23:56N 39°45' W 074°07'0 0.0
2018-Jul-09 23:08N 39°45' W 074°07'0 0.0
2018-Jul-09 22:56N 39°45' W 074°07'0 0.0
2018-Jul-09 22:26N 39°45' W 074°07'0 0.0
2018-Jul-09 21:56N 39°45' W 074°07'0 0.0
2018-Jul-09 21:20N 39°45' W 074°07'0 0.1
2018-Jul-09 20:44N 39°45' W 074°07'0 0.0
2018-Jul-09 20:26N 39°45' W 074°07'0 0.0
2018-Jul-09 19:56N 39°45' W 074°07'0 0.0
2018-Jul-09 19:26N 39°45' W 074°07'0 0.0
2018-Jul-09 18:50N 39°45' W 074°07'0 0.0
2018-Jul-09 18:26N 39°45' W 074°07'0 0.0
2018-Jul-09 17:50N 39°45' W 074°07'0 0.0
2018-Jul-09 17:26N 39°45' W 074°07'0 0.0
2018-Jul-09 16:56N 39°45' W 074°07'0 0.0
2018-Jul-09 16:08N 39°45' W 074°07'0 0.0
2018-Jul-09 15:50N 39°45' W 074°07'0 0.0
2018-Jul-09 15:20N 39°45' W 074°07'0 0.0
2018-Jul-09 14:44N 39°45' W 074°07'0 0.0
2018-Jul-09 14:26N 39°45' W 074°07'0 0.0
2018-Jul-09 13:49N 39°45' W 074°07'0 0.0
2018-Jul-09 13:25N 39°45' W 074°07'0 0.1
2018-Jul-09 12:55N 39°45' W 074°07'0 0.0
2018-Jul-09 12:28N 39°45' W 074°07'0 0.0
2018-Jul-09 11:58N 39°45' W 074°07'0 0.0
2018-Jul-09 11:28N 39°45' W 074°07'0 0.0
2018-Jul-09 10:58N 39°45' W 074°07'0 0.0
2018-Jul-09 10:28N 39°45' W 074°07'0 0.0
2018-Jul-09 09:58N 39°45' W 074°07'0 0.0
2018-Jul-09 09:28N 39°45' W 074°07'0 0.0
2018-Jul-09 08:58N 39°45' W 074°07'0 0.0
2018-Jul-09 08:28N 39°45' W 074°07'0 0.0
2018-Jul-09 07:58N 39°45' W 074°07'0 0.0
2018-Jul-09 07:28N 39°45' W 074°07'0 0.0
2018-Jul-09 06:58N 39°45' W 074°07'0 0.0
2018-Jul-09 06:25N 39°45' W 074°07'0 0.0
2018-Jul-09 05:58N 39°45' W 074°07'0 0.0
2018-Jul-09 05:25N 39°45' W 074°07'0 0.0
2018-Jul-09 04:49N 39°45' W 074°07'0 0.0
2018-Jul-09 04:28N 39°45' W 074°07'0 0.0
2018-Jul-09 03:58N 39°45' W 074°07'0 0.0
2018-Jul-09 03:25N 39°45' W 074°07'0 0.0
2018-Jul-09 02:55N 39°45' W 074°07'0 0.0
2018-Jul-09 02:19N 39°45' W 074°07'0 0.0
2018-Jul-09 01:55N 39°45' W 074°07'0 0.0
2018-Jul-09 01:22N 39°45' W 074°07'0 0.0
2018-Jul-09 00:55N 39°45' W 074°07'0 0.0
2018-Jul-09 00:07N 39°45' W 074°07'0 0.0
2018-Jul-08 23:43N 39°45' W 074°07'0 0.0
2018-Jul-08 23:19N 39°45' W 074°07'0 0.0
2018-Jul-08 22:49N 39°45' W 074°07'0 0.0
2018-Jul-08 21:55N 39°45' W 074°07'0 0.0
2018-Jul-08 21:25N 39°45' W 074°07'0 0.0
2018-Jul-08 20:55N 39°45' W 074°07'0 0.0
2018-Jul-08 20:25N 39°45' W 074°07'0 0.0
2018-Jul-08 19:55N 39°45' W 074°07'0 0.0
2018-Jul-08 19:25N 39°45' W 074°07'0 0.0
2018-Jul-08 18:55N 39°45' W 074°07'0 0.0
2018-Jul-08 18:01N 39°45' W 074°07'0 0.0
2018-Jul-08 17:25N 39°45' W 074°07'0 0.0
2018-Jul-08 16:37N 39°45' W 074°07'0 0.0
2018-Jul-08 16:19N 39°45' W 074°07'0 0.0
2018-Jul-08 15:55N 39°45' W 074°07'0 0.0
2018-Jul-08 15:25N 39°45' W 074°07'0 0.0
2018-Jul-08 14:55N 39°45' W 074°07'0 0.0
2018-Jul-08 14:25N 39°45' W 074°07'0 0.0
2018-Jul-08 13:55N 39°45' W 074°07'0 0.0
2018-Jul-08 13:25N 39°45' W 074°07'0 0.0
2018-Jul-08 12:37N 39°45' W 074°07'0 0.0
2018-Jul-08 12:19N 39°45' W 074°07'0 0.0
2018-Jul-08 11:58N 39°45' W 074°07'0 0.0
2018-Jul-08 11:22N 39°45' W 074°07'0 0.0
2018-Jul-08 10:49N 39°45' W 074°07'0 0.0
2018-Jul-08 10:25N 39°45' W 074°07'0 0.0
2018-Jul-08 09:37N 39°45' W 074°07'0 0.0
2018-Jul-08 09:19N 39°45' W 074°07'0 0.0
2018-Jul-08 08:58N 39°45' W 074°07'0 0.0
2018-Jul-08 08:19N 39°45' W 074°07'0 0.0
2018-Jul-08 07:55N 39°45' W 074°07'0 0.0
2018-Jul-08 07:13N 39°45' W 074°07'0 0.0
2018-Jul-08 06:55N 39°45' W 074°07'0 0.0
2018-Jul-08 06:25N 39°45' W 074°07'0 0.0
2018-Jul-08 05:49N 39°45' W 074°07'0 0.0
2018-Jul-08 04:13N 39°45' W 074°07'0 0.0
2018-Jul-08 03:55N 39°45' W 074°07'0 0.0
2018-Jul-08 03:13N 39°45' W 074°07'0 0.0
2018-Jul-08 02:49N 39°45' W 074°07'0 0.0
2018-Jul-08 02:25N 39°45' W 074°07'0 0.0
2018-Jul-08 01:49N 39°45' W 074°07'0 0.0
2018-Jul-08 01:25N 39°45' W 074°07'0 0.0
2018-Jul-08 00:55N 39°45' W 074°07'0 0.0
2018-Jul-08 00:25N 39°45' W 074°07'0 0.0
2018-Jul-07 23:49N 39°45' W 074°07'0 0.0
2018-Jul-07 23:19N 39°45' W 074°07'0 0.0
2018-Jul-07 22:49N 39°45' W 074°07'0 0.0
2018-Jul-07 22:25N 39°45' W 074°07'0 0.0
2018-Jul-07 21:55N 39°45' W 074°07'0 0.0
2018-Jul-07 21:25N 39°45' W 074°07'0 0.0
2018-Jul-07 20:43N 39°45' W 074°07'0 0.0
2018-Jul-07 20:25N 39°45' W 074°07'0 0.0
2018-Jul-07 19:55N 39°45' W 074°07'0 0.0
2018-Jul-07 19:25N 39°45' W 074°07'0 0.0
2018-Jul-07 18:43N 39°45' W 074°07'0 0.0
2018-Jul-07 18:25N 39°45' W 074°07'0 0.0
2018-Jul-07 17:49N 39°45' W 074°07'0 0.0
2018-Jul-07 17:25N 39°45' W 074°07'0 0.0
2018-Jul-07 16:55N 39°45' W 074°07'0 0.0
2018-Jul-07 15:19N 39°45' W 074°07'0 0.0
2018-Jul-07 14:55N 39°45' W 074°07'0 0.0
2018-Jul-07 14:25N 39°45' W 074°07'0 0.0
2018-Jul-07 13:55N 39°45' W 074°07'0 0.0
2018-Jul-07 13:25N 39°45' W 074°07'0 0.0
2018-Jul-07 12:55N 39°45' W 074°07'0 0.0
2018-Jul-07 12:19N 39°45' W 074°07'0 0.0
2018-Jul-07 11:55N 39°45' W 074°07'0 0.0
2018-Jul-07 11:13N 39°45' W 074°07'0 0.0
2018-Jul-07 10:55N 39°45' W 074°07'0 0.0
2018-Jul-07 10:25N 39°45' W 074°07'0 0.0
2018-Jul-07 09:55N 39°45' W 074°07'0 0.0
2018-Jul-07 09:25N 39°45' W 074°07'0 0.0
2018-Jul-07 08:55N 39°45' W 074°07'0 0.0
2018-Jul-07 08:25N 39°45' W 074°07'0 0.0
2018-Jul-07 07:55N 39°45' W 074°07'0 0.0
2018-Jul-07 07:19N 39°45' W 074°07'0 0.0
2018-Jul-07 06:55N 39°45' W 074°07'0 0.0
2018-Jul-07 06:25N 39°45' W 074°07'0 0.0
2018-Jul-07 05:55N 39°45' W 074°07'0 0.0
2018-Jul-07 05:25N 39°45' W 074°07'0 0.0
2018-Jul-07 04:43N 39°45' W 074°07'0 0.0
2018-Jul-07 04:25N 39°45' W 074°07'0 0.0
2018-Jul-07 03:55N 39°45' W 074°07'0 0.0
2018-Jul-07 03:25N 39°45' W 074°07'0 0.0
2018-Jul-07 02:55N 39°45' W 074°07'0 0.0
2018-Jul-07 02:19N 39°45' W 074°07'0 0.0
2018-Jul-07 01:55N 39°45' W 074°07'0 0.0
2018-Jul-07 01:19N 39°45' W 074°07'0 0.0
2018-Jul-07 00:55N 39°45' W 074°07'0 0.0
2018-Jul-07 00:25N 39°45' W 074°07'0 0.0
2018-Jul-06 23:49N 39°45' W 074°07'0 0.0
2018-Jul-06 23:25N 39°45' W 074°07'0 0.0
2018-Jul-06 22:31N 39°45' W 074°07'0 0.0
2018-Jul-06 22:25N 39°45' W 074°07'0 0.0
2018-Jul-06 21:55N 39°45' W 074°07'0 0.0
2018-Jul-06 21:25N 39°45' W 074°07'0 0.0
2018-Jul-06 20:49N 39°45' W 074°07'0 0.0
2018-Jul-06 20:25N 39°45' W 074°07'0 0.0
2018-Jul-06 19:01N 39°45' W 074°07'0 0.0
2018-Jul-06 18:55N 39°45' W 074°07'0 0.0
2018-Jul-06 18:07N 39°45' W 074°07'0 0.0
2018-Jul-06 17:49N 39°45' W 074°07'0 0.0
2018-Jul-06 17:19N 39°45' W 074°07'0 0.0
2018-Jul-06 16:55N 39°45' W 074°07'0 0.0
2018-Jul-06 16:19N 39°45' W 074°07'0 0.0
2018-Jul-06 15:55N 39°45' W 074°07'0 0.0
2018-Jul-06 15:25N 39°45' W 074°07'0 0.0
2018-Jul-06 14:37N 39°45' W 074°07'0 0.0
2018-Jul-06 14:25N 39°45' W 074°07'0 0.0
2018-Jul-06 13:55N 39°45' W 074°07'0 0.0
2018-Jul-06 13:07N 39°45' W 074°07'0 0.0
2018-Jul-06 12:49N 39°45' W 074°07'0 0.0
2018-Jul-06 12:25N 39°45' W 074°07'0 0.0
2018-Jul-06 11:55N 39°45' W 074°07'0 0.0
2018-Jul-06 11:19N 39°45' W 074°07'0 0.0
2018-Jul-06 10:49N 39°45' W 074°07'0 0.0
2018-Jul-06 10:25N 39°45' W 074°07'0 0.0
2018-Jul-06 09:55N 39°45' W 074°07'0 0.0
2018-Jul-06 09:13N 39°45' W 074°07'0 0.0
2018-Jul-06 08:49N 39°45' W 074°07'0 0.0
2018-Jul-06 08:25N 39°45' W 074°07'0 0.0
2018-Jul-06 07:55N 39°45' W 074°07'0 0.0
2018-Jul-06 07:25N 39°45' W 074°07'0 0.0
2018-Jul-06 06:49N 39°45' W 074°07'0 0.0
2018-Jul-06 06:25N 39°45' W 074°07'0 0.0
2018-Jul-06 05:49N 39°45' W 074°07'0 0.0
2018-Jul-06 05:25N 39°45' W 074°07'0 0.0
2018-Jul-06 04:55N 39°45' W 074°07'0 0.0
2018-Jul-06 04:25N 39°45' W 074°07'0 0.0
2018-Jul-06 03:55N 39°45' W 074°07'0 0.0
2018-Jul-06 03:25N 39°45' W 074°07'0 0.0
2018-Jul-06 02:55N 39°45' W 074°07'0 0.0
2018-Jul-06 02:25N 39°45' W 074°07'0 0.0
2018-Jul-06 01:49N 39°45' W 074°07'0 0.0
2018-Jul-06 01:25N 39°45' W 074°07'0 0.0
2018-Jul-06 00:55N 39°45' W 074°07'0 0.0
2018-Jul-06 00:19N 39°45' W 074°07'0 0.0
2018-Jul-05 23:49N 39°45' W 074°07'0 0.0
2018-Jul-05 23:25N 39°45' W 074°07'0 0.0
2018-Jul-05 22:55N 39°45' W 074°07'0 0.0
2018-Jul-05 22:13N 39°45' W 074°07'0 0.0
2018-Jul-05 21:49N 39°45' W 074°07'0 0.0
2018-Jul-05 21:25N 39°45' W 074°07'0 0.0
2018-Jul-05 20:55N 39°45' W 074°07'0 0.0
2018-Jul-05 20:25N 39°45' W 074°07'0 0.0
2018-Jul-05 19:55N 39°45' W 074°07'0 0.0
2018-Jul-05 19:19N 39°45' W 074°07'0 0.0
2018-Jul-05 18:55N 39°45' W 074°07'0 0.0
2018-Jul-05 17:43N 39°45' W 074°07'0 0.0
2018-Jul-05 16:31N 39°45' W 074°07'0 0.0
2018-Jul-05 16:13N 39°45' W 074°07'0 0.0
2018-Jul-05 15:07N 39°45' W 074°07'0 0.0
2018-Jul-05 13:37N 39°45' W 074°07'0 0.0
2018-Jul-05 13:19N 39°45' W 074°07'0 0.0
2018-Jul-05 12:55N 39°45' W 074°07'0 0.0
2018-Jul-05 12:25N 39°45' W 074°07'0 0.0
2018-Jul-05 11:55N 39°45' W 074°07'0 0.0
2018-Jul-05 11:25N 39°45' W 074°07'0 0.0
2018-Jul-05 10:58N 39°45' W 074°07'0 0.0
2018-Jul-05 10:28N 39°45' W 074°07'0 0.0
2018-Jul-05 09:58N 39°45' W 074°07'0 0.0
2018-Jul-05 09:22N 39°45' W 074°07'0 0.0
2018-Jul-05 08:58N 39°45' W 074°07'0 0.0
2018-Jul-05 08:19N 39°45' W 074°07'0 0.0
2018-Jul-05 07:49N 39°45' W 074°07'0 0.0
2018-Jul-05 07:25N 39°45' W 074°07'0 0.0
2018-Jul-05 06:55N 39°45' W 074°07'0 0.0
2018-Jul-05 06:25N 39°45' W 074°07'0 0.0
2018-Jul-05 05:58N 39°45' W 074°07'0 0.0
2018-Jul-05 05:25N 39°45' W 074°07'0 0.0
2018-Jul-05 04:58N 39°45' W 074°07'0 0.0
2018-Jul-05 04:25N 39°45' W 074°07'0 0.0
2018-Jul-05 03:55N 39°45' W 074°07'0 0.0
2018-Jul-05 03:25N 39°45' W 074°07'0 0.0
2018-Jul-05 02:58N 39°45' W 074°07'0 0.0
2018-Jul-05 02:28N 39°45' W 074°07'0 0.0
2018-Jul-05 01:58N 39°45' W 074°07'0 0.0
2018-Jul-05 01:19N 39°45' W 074°07'0 0.0
2018-Jul-05 00:49N 39°45' W 074°07'0 0.0
2018-Jul-05 00:19N 39°45' W 074°07'0 0.0
2018-Jul-04 23:49N 39°45' W 074°07'0 0.0
2018-Jul-04 23:25N 39°45' W 074°07'0 0.0
2018-Jul-04 22:49N 39°45' W 074°07'0 0.0
2018-Jul-04 22:13N 39°45' W 074°07'0 0.0
2018-Jul-04 21:49N 39°45' W 074°07'0 0.0
2018-Jul-04 21:25N 39°45' W 074°07'0 0.0
2018-Jul-04 20:49N 39°45' W 074°07'0 0.0
2018-Jul-04 20:25N 39°45' W 074°07'0 0.0
2018-Jul-04 19:55N 39°45' W 074°07'0 0.0
2018-Jul-04 19:25N 39°45' W 074°07'0 0.0
2018-Jul-04 18:55N 39°45' W 074°07'0 0.0
2018-Jul-04 18:25N 39°45' W 074°07'0 0.0
2018-Jul-04 17:52N 39°45' W 074°07'0 0.0
2018-Jul-04 17:28N 39°45' W 074°07'0 0.0
2018-Jul-04 16:58N 39°45' W 074°07'0 0.0
2018-Jul-04 16:28N 39°45' W 074°07'0 0.0
2018-Jul-04 15:58N 39°45' W 074°07'0 0.0
2018-Jul-04 15:22N 39°45' W 074°07'0 0.0
2018-Jul-04 14:58N 39°45' W 074°07'0 0.0
2018-Jul-04 14:16N 39°45' W 074°07'0 0.0
2018-Jul-04 13:52N 39°45' W 074°07'0 0.0
2018-Jul-04 13:25N 39°45' W 074°07'0 0.0
2018-Jul-04 12:58N 39°45' W 074°07'0 0.0
2018-Jul-04 12:28N 39°45' W 074°07'0 0.0
2018-Jul-04 11:58N 39°45' W 074°07'0 0.0
2018-Jul-04 11:28N 39°45' W 074°07'0 0.0
2018-Jul-04 10:49N 39°45' W 074°07'0 0.0
2018-Jul-04 10:28N 39°45' W 074°07'0 0.0
2018-Jul-04 09:58N 39°45' W 074°07'0 0.0
2018-Jul-04 09:22N 39°45' W 074°07'0 0.0
2018-Jul-04 08:58N 39°45' W 074°07'0 0.0
2018-Jul-04 08:28N 39°45' W 074°07'0 0.0
2018-Jul-04 07:58N 39°45' W 074°07'0 0.0
2018-Jul-04 07:25N 39°45' W 074°07'0 0.0
2018-Jul-04 06:58N 39°45' W 074°07'0 0.0
2018-Jul-04 06:28N 39°45' W 074°07'0 0.0
2018-Jul-04 05:58N 39°45' W 074°07'0 0.0
2018-Jul-04 05:28N 39°45' W 074°07'0 0.0
2018-Jul-04 04:58N 39°45' W 074°07'0 0.0
2018-Jul-04 04:28N 39°45' W 074°07'0 0.0
2018-Jul-04 03:58N 39°45' W 074°07'0 0.0
2018-Jul-04 03:28N 39°45' W 074°07'0 0.0
2018-Jul-04 02:55N 39°45' W 074°07'0 0.0
2018-Jul-04 02:25N 39°45' W 074°07'0 0.0
2018-Jul-04 01:43N 39°45' W 074°07'0 0.0
2018-Jul-04 01:25N 39°45' W 074°07'0 0.0
2018-Jul-04 00:43N 39°45' W 074°07'0 0.0
2018-Jul-04 00:13N 39°45' W 074°07'0 0.0
2018-Jul-03 23:55N 39°45' W 074°07'0 0.0
2018-Jul-03 23:25N 39°45' W 074°07'0 0.0
2018-Jul-03 22:49N 39°45' W 074°07'0 0.0
2018-Jul-03 22:25N 39°45' W 074°07'0 0.0
2018-Jul-03 21:55N 39°45' W 074°07'0 0.0
2018-Jul-03 21:25N 39°45' W 074°07'0 0.0
2018-Jul-03 20:55N 39°45' W 074°07'0 0.0
2018-Jul-03 20:07N 39°45' W 074°07'0 0.0
2018-Jul-03 19:55N 39°45' W 074°07'0 0.0
2018-Jul-03 19:25N 39°45' W 074°07'0 0.0
2018-Jul-03 18:55N 39°45' W 074°07'0 0.0
2018-Jul-03 17:49N 39°45' W 074°07'0 0.0
2018-Jul-03 17:25N 39°45' W 074°07'0 0.0
2018-Jul-03 16:55N 39°45' W 074°07'0 0.0
2018-Jul-03 16:19N 39°45' W 074°07'0 0.0
2018-Jul-03 15:55N 39°45' W 074°07'0 0.0
2018-Jul-03 15:25N 39°45' W 074°07'0 0.0
2018-Jul-03 14:49N 39°45' W 074°07'0 0.0
2018-Jul-03 14:13N 39°45' W 074°07'0 0.0
2018-Jul-03 13:58N 39°45' W 074°07'0 0.0
2018-Jul-03 13:28N 39°45' W 074°07'0 0.0
2018-Jul-03 12:58N 39°45' W 074°07'  
Track history (hours):
 
Tides and Currents Weather Stations Pressure Air Temp Water Temp Dewpoint Dewpoint Depression Visibility Wind Speed Wind Dir Waves Ship Positions

Alexandria Dawn

Owner: Helmar Fishing, Inc., Forked River, NJ. More information available from US FCC via Universal Licensing System and Coast Guard Vessel Documentation Center.

Last reported at 2018-Jul-13 12:32 UTC. Time now 2018-Jul-17 05:48 UTC.
Position N 39°28' W 071°52'.

Length 22 m.

Type: Fishing. MMSI: 367701040.

Date/timePositionNaut miles runAvg speedWind from/ knotsBaromVisibWave heightAir tempDewpointWater temp
2018-Jul-13 12:32N 39°28' W 071°52'0 6.7
2018-Jul-13 12:30N 39°28' W 071°53'4 7.0
2018-Jul-13 11:54N 39°26' W 071°58'3 7.1
2018-Jul-13 11:28N 39°25' W 072°01'5 6.7
2018-Jul-13 10:45N 39°24' W 072°08'2 6.7
2018-Jul-13 10:26N 39°24' W 072°10'3 6.8
2018-Jul-13 10:00N 39°25' W 072°14'3 6.8
2018-Jul-13 09:30N 39°26' W 072°18'4 7.1
2018-Jul-13 08:55N 39°27' W 072°23'3 7.4
2018-Jul-13 08:28N 39°28' W 072°28'3 7.4
2018-Jul-13 08:00N 39°29' W 072°32'4 6.8
2018-Jul-13 07:28N 39°30' W 072°36'3 6.5
2018-Jul-13 06:59N 39°31' W 072°40'3 6.5
2018-Jul-13 06:28N 39°32' W 072°44'3 6.7
2018-Jul-13 06:00N 39°33' W 072°48'4 7.3
2018-Jul-13 05:26N 39°35' W 072°53'4 7.8
2018-Jul-13 04:59N 39°35' W 072°57'4 7.8
2018-Jul-13 04:30N 39°36' W 073°02'4 7.5
2018-Jul-13 04:00N 39°36' W 073°07'4 8.0
2018-Jul-13 03:30N 39°37' W 073°12'4 7.9
2018-Jul-13 03:00N 39°38' W 073°17'4 7.9
2018-Jul-13 02:30N 39°39' W 073°22'4 7.8
2018-Jul-13 01:59N 39°40' W 073°27'4 7.5
2018-Jul-13 01:30N 39°40' W 073°32'4 7.4
2018-Jul-13 01:00N 39°41' W 073°37'4 7.3
2018-Jul-13 00:30N 39°42' W 073°41'9 7.2
2018-Jul-12 23:19N 39°44' W 073°52'2 7.0
2018-Jul-12 22:59N 39°44' W 073°55'3 6.9
2018-Jul-12 22:30N 39°45' W 073°59'3 6.9
2018-Jul-12 22:00N 39°46' W 074°04'2 4.8
2018-Jul-12 21:29N 39°45' W 074°07'0 0.5
2018-Jul-12 21:00N 39°45' W 074°07'0 0.0
2018-Jul-12 20:30N 39°45' W 074°07'0 0.0
2018-Jul-12 20:00N 39°45' W 074°07'0 0.0
2018-Jul-12 19:30N 39°45' W 074°07'0 0.0
2018-Jul-12 19:00N 39°45' W 074°07'0 0.0
2018-Jul-12 18:24N 39°45' W 074°07'0 0.0
2018-Jul-12 18:00N 39°45' W 074°07'0 0.0
2018-Jul-12 17:30N 39°45' W 074°07'0 0.0
2018-Jul-12 16:54N 39°45' W 074°07'0 0.0
2018-Jul-12 16:30N 39°45' W 074°07'0 0.0
2018-Jul-12 15:57N 39°45' W 074°07'0 0.0
2018-Jul-12 15:27N 39°45' W 074°07'0 0.0
2018-Jul-12 14:57N 39°45' W 074°07'0 0.1
2018-Jul-12 14:29N 39°45' W 074°07'0 0.0
2018-Jul-12 13:59N 39°45' W 074°07'0 0.0
2018-Jul-12 13:23N 39°45' W 074°07'0 0.0
2018-Jul-12 13:00N 39°45' W 074°07'0 0.1
2018-Jul-12 12:26N 39°45' W 074°07'0 0.0
2018-Jul-12 11:59N 39°45' W 074°07'0 0.0
2018-Jul-12 11:23N 39°45' W 074°07'0 0.0
2018-Jul-12 10:59N 39°45' W 074°07'0 0.0
2018-Jul-12 10:29N 39°45' W 074°07'0 0.0
2018-Jul-12 09:47N 39°45' W 074°07'0 0.0
2018-Jul-12 09:29N 39°45' W 074°07'0 0.0
2018-Jul-12 08:56N 39°45' W 074°07'0 0.0
2018-Jul-12 08:29N 39°45' W 074°07'0 0.0
2018-Jul-12 07:59N 39°45' W 074°07'0 0.0
2018-Jul-12 07:23N 39°45' W 074°07'0 0.0
2018-Jul-12 06:59N 39°45' W 074°07'0 0.0
2018-Jul-12 06:29N 39°45' W 074°07'0 0.0
2018-Jul-12 05:59N 39°45' W 074°07'0 0.0
2018-Jul-12 05:29N 39°45' W 074°07'0 0.0
2018-Jul-12 04:59N 39°45' W 074°07'0 0.0
2018-Jul-12 04:23N 39°45' W 074°07'0 0.0
2018-Jul-12 03:59N 39°45' W 074°07'0 0.0
2018-Jul-12 03:29N 39°45' W 074°07'0 0.0
2018-Jul-12 02:59N 39°45' W 074°07'0 0.0
2018-Jul-12 02:29N 39°45' W 074°07'0 0.0
2018-Jul-12 01:59N 39°45' W 074°07'0 0.0
2018-Jul-12 01:23N 39°45' W 074°07'0 0.0
2018-Jul-12 00:47N 39°45' W 074°07'0 0.0
2018-Jul-12 00:29N 39°45' W 074°07'0 0.0
2018-Jul-11 23:53N 39°45' W 074°07'0 0.0
2018-Jul-11 23:29N 39°45' W 074°07'0 0.0
2018-Jul-11 22:53N 39°45' W 074°07'0 0.0
2018-Jul-11 22:29N 39°45' W 074°07'0 0.0
2018-Jul-11 21:59N 39°45' W 074°07'0 0.0
2018-Jul-11 21:29N 39°45' W 074°07'0 0.0
2018-Jul-11 20:53N 39°45' W 074°07'0 0.0
2018-Jul-11 20:29N 39°45' W 074°07'0 0.0
2018-Jul-11 19:59N 39°45' W 074°07'0 0.0
2018-Jul-11 19:29N 39°45' W 074°07'0 0.0
2018-Jul-11 18:59N 39°45' W 074°07'0 0.0
2018-Jul-11 18:29N 39°45' W 074°07'0 0.0
2018-Jul-11 17:53N 39°45' W 074°07'0 0.0
2018-Jul-11 17:17N 39°45' W 074°07'0 0.0
2018-Jul-11 16:59N 39°45' W 074°07'0 0.0
2018-Jul-11 16:23N 39°45' W 074°07'0 0.0
2018-Jul-11 15:41N 39°45' W 074°07'0 0.0
2018-Jul-11 15:29N 39°45' W 074°07'0 0.0
2018-Jul-11 14:29N 39°45' W 074°07'0 0.0
2018-Jul-11 13:59N 39°45' W 074°07'0 0.0
2018-Jul-11 13:23N 39°45' W 074°07'0 0.0
2018-Jul-11 12:53N 39°45' W 074°07'0 0.0
2018-Jul-11 12:29N 39°45' W 074°07'0 0.0
2018-Jul-11 11:59N 39°45' W 074°07'0 0.0
2018-Jul-11 11:29N 39°45' W 074°07'0 0.0
2018-Jul-11 10:59N 39°45' W 074°07'0 0.0
2018-Jul-11 10:11N 39°45' W 074°07'0 0.0
2018-Jul-11 09:59N 39°45' W 074°07'0 0.0
2018-Jul-11 09:17N 39°45' W 074°07'0 0.0
2018-Jul-11 08:59N 39°45' W 074°07'0 0.0
2018-Jul-11 08:23N 39°45' W 074°07'0 0.0
2018-Jul-11 07:59N 39°45' W 074°07'0 0.0
2018-Jul-11 07:29N 39°45' W 074°07'0 0.0
2018-Jul-11 06:59N 39°45' W 074°07'0 0.0
2018-Jul-11 06:29N 39°45' W 074°07'0 0.0
2018-Jul-11 05:47N 39°45' W 074°07'0 0.0
2018-Jul-11 05:26N 39°45' W 074°07'0 0.0
2018-Jul-11 04:59N 39°45' W 074°07'0 0.0
2018-Jul-11 04:29N 39°45' W 074°07'0 0.0
2018-Jul-11 03:59N 39°45' W 074°07'0 0.0
2018-Jul-11 03:23N 39°45' W 074°07'0 0.0
2018-Jul-11 02:59N 39°45' W 074°07'0 0.0
2018-Jul-11 02:29N 39°45' W 074°07'0 0.0
2018-Jul-11 01:59N 39°45' W 074°07'0 0.0
2018-Jul-11 01:29N 39°45' W 074°07'0 0.0
2018-Jul-11 00:59N 39°45' W 074°07'0 0.0
2018-Jul-11 00:29N 39°45' W 074°07'0 0.0
2018-Jul-10 23:47N 39°45' W 074°07'0 0.0
2018-Jul-10 23:29N 39°45' W 074°07'0 0.0
2018-Jul-10 22:59N 39°45' W 074°07'0 0.0
2018-Jul-10 22:29N 39°45' W 074°07'0 0.0
2018-Jul-10 21:59N 39°45' W 074°07'0 0.0
2018-Jul-10 21:29N 39°45' W 074°07'0 0.0
2018-Jul-10 20:59N 39°45' W 074°07'0 0.0
2018-Jul-10 20:29N 39°45' W 074°07'0 0.0
2018-Jul-10 19:59N 39°45' W 074°07'0 0.0
2018-Jul-10 19:29N 39°45' W 074°07'0 0.0
2018-Jul-10 18:47N 39°45' W 074°07'0 0.0
2018-Jul-10 18:29N 39°45' W 074°07'0 0.0
2018-Jul-10 17:59N 39°45' W 074°07'0 0.0
2018-Jul-10 17:17N 39°45' W 074°07'0 0.0
2018-Jul-10 16:59N 39°45' W 074°07'0 0.0
2018-Jul-10 16:29N 39°45' W 074°07'0 0.0
2018-Jul-10 14:59N 39°45' W 074°07'0 0.0
2018-Jul-10 14:29N 39°45' W 074°07'0 0.0
2018-Jul-10 13:56N 39°45' W 074°07'0 0.0
2018-Jul-10 13:26N 39°45' W 074°07'0 0.0
2018-Jul-10 12:56N 39°45' W 074°07'0 0.0
2018-Jul-10 12:14N 39°45' W 074°07'0 0.0
2018-Jul-10 11:56N 39°45' W 074°07'0 0.0
2018-Jul-10 11:26N 39°45' W 074°07'0 0.0
2018-Jul-10 10:50N 39°45' W 074°07'0 0.0
2018-Jul-10 10:26N 39°45' W 074°07'0 0.0
2018-Jul-10 09:59N 39°45' W 074°07'0 0.0
2018-Jul-10 09:29N 39°45' W 074°07'0 0.0
2018-Jul-10 08:59N 39°45' W 074°07'0 0.0
2018-Jul-10 08:26N 39°45' W 074°07'0 0.0
2018-Jul-10 07:53N 39°45' W 074°07'0 0.0
2018-Jul-10 07:26N 39°45' W 074°07'0 0.0
2018-Jul-10 06:44N 39°45' W 074°07'0 0.0
2018-Jul-10 06:26N 39°45' W 074°07'0 0.0
2018-Jul-10 05:56N 39°45' W 074°07'0 0.0
2018-Jul-10 05:20N 39°45' W 074°07'0 0.0
2018-Jul-10 04:56N 39°45' W 074°07'0 0.0
2018-Jul-10 04:26N 39°45' W 074°07'0 0.0
2018-Jul-10 03:59N 39°45' W 074°07'0 0.0
2018-Jul-10 03:26N 39°45' W 074°07'0 0.0
2018-Jul-10 02:32N 39°45' W 074°07'0 0.0
2018-Jul-10 02:08N 39°45' W 074°07'0 0.0
2018-Jul-10 01:56N 39°45' W 074°07'0 0.0
2018-Jul-10 01:08N 39°45' W 074°07'0 0.0
2018-Jul-10 00:56N 39°45' W 074°07'0 0.0
2018-Jul-10 00:26N 39°45' W 074°07'0 0.0
2018-Jul-09 23:56N 39°45' W 074°07'0 0.0
2018-Jul-09 23:08N 39°45' W 074°07'0 0.0
2018-Jul-09 22:56N 39°45' W 074°07'0 0.0
2018-Jul-09 22:26N 39°45' W 074°07'0 0.0
2018-Jul-09 21:56N 39°45' W 074°07'0 0.0
2018-Jul-09 21:20N 39°45' W 074°07'0 0.1
2018-Jul-09 20:44N 39°45' W 074°07'0 0.0
2018-Jul-09 20:26N 39°45' W 074°07'0 0.0
2018-Jul-09 19:56N 39°45' W 074°07'0 0.0
2018-Jul-09 19:26N 39°45' W 074°07'0 0.0
2018-Jul-09 18:50N 39°45' W 074°07'0 0.0
2018-Jul-09 18:26N 39°45' W 074°07'0 0.0
2018-Jul-09 17:50N 39°45' W 074°07'0 0.0
2018-Jul-09 17:26N 39°45' W 074°07'0 0.0
2018-Jul-09 16:56N 39°45' W 074°07'0 0.0
2018-Jul-09 16:08N 39°45' W 074°07'0 0.0
2018-Jul-09 15:50N 39°45' W 074°07'0 0.0
2018-Jul-09 15:20N 39°45' W 074°07'0 0.0
2018-Jul-09 14:44N 39°45' W 074°07'0 0.0
2018-Jul-09 14:26N 39°45' W 074°07'0 0.0
2018-Jul-09 13:49N 39°45' W 074°07'0 0.0
2018-Jul-09 13:25N 39°45' W 074°07'0 0.1
2018-Jul-09 12:55N 39°45' W 074°07'0 0.0
2018-Jul-09 12:28N 39°45' W 074°07'0 0.0
2018-Jul-09 11:58N 39°45' W 074°07'0 0.0
2018-Jul-09 11:28N 39°45' W 074°07'0 0.0
2018-Jul-09 10:58N 39°45' W 074°07'0 0.0
2018-Jul-09 10:28N 39°45' W 074°07'0 0.0
2018-Jul-09 09:58N 39°45' W 074°07'0 0.0
2018-Jul-09 09:28N 39°45' W 074°07'0 0.0
2018-Jul-09 08:58N 39°45' W 074°07'0 0.0
2018-Jul-09 08:28N 39°45' W 074°07'0 0.0
2018-Jul-09 07:58N 39°45' W 074°07'0 0.0
2018-Jul-09 07:28N 39°45' W 074°07'0 0.0
2018-Jul-09 06:58N 39°45' W 074°07'0 0.0
2018-Jul-09 06:25N 39°45' W 074°07'0 0.0
2018-Jul-09 05:58N 39°45' W 074°07'0 0.0
2018-Jul-09 05:25N 39°45' W 074°07'0 0.0
2018-Jul-09 04:49N 39°45' W 074°07'0 0.0
2018-Jul-09 04:28N 39°45' W 074°07'0 0.0
2018-Jul-09 03:58N 39°45' W 074°07'0 0.0
2018-Jul-09 03:25N 39°45' W 074°07'0 0.0
2018-Jul-09 02:55N 39°45' W 074°07'0 0.0
2018-Jul-09 02:19N 39°45' W 074°07'0 0.0
2018-Jul-09 01:55N 39°45' W 074°07'0 0.0
2018-Jul-09 01:22N 39°45' W 074°07'0 0.0
2018-Jul-09 00:55N 39°45' W 074°07'0 0.0
2018-Jul-09 00:07N 39°45' W 074°07'0 0.0
2018-Jul-08 23:43N 39°45' W 074°07'0 0.0
2018-Jul-08 23:19N 39°45' W 074°07'0 0.0
2018-Jul-08 22:49N 39°45' W 074°07'0 0.0
2018-Jul-08 21:55N 39°45' W 074°07'0 0.0
2018-Jul-08 21:25N 39°45' W 074°07'0 0.0
2018-Jul-08 20:55N 39°45' W 074°07'0 0.0
2018-Jul-08 20:25N 39°45' W 074°07'0 0.0
2018-Jul-08 19:55N 39°45' W 074°07'0 0.0
2018-Jul-08 19:25N 39°45' W 074°07'0 0.0
2018-Jul-08 18:55N 39°45' W 074°07'0 0.0
2018-Jul-08 18:01N 39°45' W 074°07'0 0.0
2018-Jul-08 17:25N 39°45' W 074°07'0 0.0
2018-Jul-08 16:37N 39°45' W 074°07'0 0.0
2018-Jul-08 16:19N 39°45' W 074°07'0 0.0
2018-Jul-08 15:55N 39°45' W 074°07'0 0.0
2018-Jul-08 15:25N 39°45' W 074°07'0 0.0
2018-Jul-08 14:55N 39°45' W 074°07'0 0.0
2018-Jul-08 14:25N 39°45' W 074°07'0 0.0
2018-Jul-08 13:55N 39°45' W 074°07'0 0.0
2018-Jul-08 13:25N 39°45' W 074°07'0 0.0
2018-Jul-08 12:37N 39°45' W 074°07'0 0.0
2018-Jul-08 12:19N 39°45' W 074°07'0 0.0
2018-Jul-08 11:58N 39°45' W 074°07'0 0.0
2018-Jul-08 11:22N 39°45' W 074°07'0 0.0
2018-Jul-08 10:49N 39°45' W 074°07'0 0.0
2018-Jul-08 10:25N 39°45' W 074°07'0 0.0
2018-Jul-08 09:37N 39°45' W 074°07'0 0.0
2018-Jul-08 09:19N 39°45' W 074°07'0 0.0
2018-Jul-08 08:58N 39°45' W 074°07'0 0.0
2018-Jul-08 08:19N 39°45' W 074°07'0 0.0
2018-Jul-08 07:55N 39°45' W 074°07'0 0.0
2018-Jul-08 07:13N 39°45' W 074°07'0 0.0
2018-Jul-08 06:55N 39°45' W 074°07'0 0.0
2018-Jul-08 06:25N 39°45' W 074°07'0 0.0
2018-Jul-08 05:49N 39°45' W 074°07'0 0.0
2018-Jul-08 04:13N 39°45' W 074°07'0 0.0
2018-Jul-08 03:55N 39°45' W 074°07'0 0.0
2018-Jul-08 03:13N 39°45' W 074°07'0 0.0
2018-Jul-08 02:49N 39°45' W 074°07'0 0.0
2018-Jul-08 02:25N 39°45' W 074°07'0 0.0
2018-Jul-08 01:49N 39°45' W 074°07'0 0.0
2018-Jul-08 01:25N 39°45' W 074°07'0 0.0
2018-Jul-08 00:55N 39°45' W 074°07'0 0.0
2018-Jul-08 00:25N 39°45' W 074°07'0 0.0
2018-Jul-07 23:49N 39°45' W 074°07'0 0.0
2018-Jul-07 23:19N 39°45' W 074°07'0 0.0
2018-Jul-07 22:49N 39°45' W 074°07'0 0.0
2018-Jul-07 22:25N 39°45' W 074°07'0 0.0
2018-Jul-07 21:55N 39°45' W 074°07'0 0.0
2018-Jul-07 21:25N 39°45' W 074°07'0 0.0
2018-Jul-07 20:43N 39°45' W 074°07'0 0.0
2018-Jul-07 20:25N 39°45' W 074°07'0 0.0
2018-Jul-07 19:55N 39°45' W 074°07'0 0.0
2018-Jul-07 19:25N 39°45' W 074°07'0 0.0
2018-Jul-07 18:43N 39°45' W 074°07'0 0.0
2018-Jul-07 18:25N 39°45' W 074°07'0 0.0
2018-Jul-07 17:49N 39°45' W 074°07'0 0.0
2018-Jul-07 17:25N 39°45' W 074°07'0 0.0
2018-Jul-07 16:55N 39°45' W 074°07'0 0.0
2018-Jul-07 15:19N 39°45' W 074°07'0 0.0
2018-Jul-07 14:55N 39°45' W 074°07'0 0.0
2018-Jul-07 14:25N 39°45' W 074°07'0 0.0
2018-Jul-07 13:55N 39°45' W 074°07'0 0.0
2018-Jul-07 13:25N 39°45' W 074°07'0 0.0
2018-Jul-07 12:55N 39°45' W 074°07'0 0.0
2018-Jul-07 12:19N 39°45' W 074°07'0 0.0
2018-Jul-07 11:55N 39°45' W 074°07'0 0.0
2018-Jul-07 11:13N 39°45' W 074°07'0 0.0
2018-Jul-07 10:55N 39°45' W 074°07'0 0.0
2018-Jul-07 10:25N 39°45' W 074°07'0 0.0
2018-Jul-07 09:55N 39°45' W 074°07'0 0.0
2018-Jul-07 09:25N 39°45' W 074°07'0 0.0
2018-Jul-07 08:55N 39°45' W 074°07'0 0.0
2018-Jul-07 08:25N 39°45' W 074°07'0 0.0
2018-Jul-07 07:55N 39°45' W 074°07'0 0.0
2018-Jul-07 07:19N 39°45' W 074°07'0 0.0
2018-Jul-07 06:55N 39°45' W 074°07'0 0.0
2018-Jul-07 06:25N 39°45' W 074°07'0 0.0
2018-Jul-07 05:55N 39°45' W 074°07'0 0.0
2018-Jul-07 05:25N 39°45' W 074°07'0 0.0
2018-Jul-07 04:43N 39°45' W 074°07'0 0.0
2018-Jul-07 04:25N 39°45' W 074°07'0 0.0
2018-Jul-07 03:55N 39°45' W 074°07'0 0.0
2018-Jul-07 03:25N 39°45' W 074°07'0 0.0
2018-Jul-07 02:55N 39°45' W 074°07'0 0.0
2018-Jul-07 02:19N 39°45' W 074°07'0 0.0
2018-Jul-07 01:55N 39°45' W 074°07'0 0.0
2018-Jul-07 01:19N 39°45' W 074°07'0 0.0
2018-Jul-07 00:55N 39°45' W 074°07'0 0.0
2018-Jul-07 00:25N 39°45' W 074°07'0 0.0
2018-Jul-06 23:49N 39°45' W 074°07'0 0.0
2018-Jul-06 23:25N 39°45' W 074°07'0 0.0
2018-Jul-06 22:31N 39°45' W 074°07'0 0.0
2018-Jul-06 22:25N 39°45' W 074°07'0 0.0
2018-Jul-06 21:55N 39°45' W 074°07'0 0.0
2018-Jul-06 21:25N 39°45' W 074°07'0 0.0
2018-Jul-06 20:49N 39°45' W 074°07'0 0.0
2018-Jul-06 20:25N 39°45' W 074°07'0 0.0
2018-Jul-06 19:01N 39°45' W 074°07'0 0.0
2018-Jul-06 18:55N 39°45' W 074°07'0 0.0
2018-Jul-06 18:07N 39°45' W 074°07'0 0.0
2018-Jul-06 17:49N 39°45' W 074°07'0 0.0
2018-Jul-06 17:19N 39°45' W 074°07'0 0.0
2018-Jul-06 16:55N 39°45' W 074°07'0 0.0
2018-Jul-06 16:19N 39°45' W 074°07'0 0.0
2018-Jul-06 15:55N 39°45' W 074°07'0 0.0
2018-Jul-06 15:25N 39°45' W 074°07'0 0.0
2018-Jul-06 14:37N 39°45' W 074°07'0 0.0
2018-Jul-06 14:25N 39°45' W 074°07'0 0.0
2018-Jul-06 13:55N 39°45' W 074°07'0 0.0
2018-Jul-06 13:07N 39°45' W 074°07'0 0.0
2018-Jul-06 12:49N 39°45' W 074°07'0 0.0
2018-Jul-06 12:25N 39°45' W 074°07'0 0.0
2018-Jul-06 11:55N 39°45' W 074°07'0 0.0
2018-Jul-06 11:19N 39°45' W 074°07'0 0.0
2018-Jul-06 10:49N 39°45' W 074°07'0 0.0
2018-Jul-06 10:25N 39°45' W 074°07'0 0.0
2018-Jul-06 09:55N 39°45' W 074°07'0 0.0
2018-Jul-06 09:13N 39°45' W 074°07'0 0.0
2018-Jul-06 08:49N 39°45' W 074°07'0 0.0
2018-Jul-06 08:25N 39°45' W 074°07'0 0.0
2018-Jul-06 07:55N 39°45' W 074°07'0 0.0
2018-Jul-06 07:25N 39°45' W 074°07'0 0.0
2018-Jul-06 06:49N 39°45' W 074°07'0 0.0
2018-Jul-06 06:25N 39°45' W 074°07'0 0.0
2018-Jul-06 05:49N 39°45' W 074°07'0 0.0
2018-Jul-06 05:25N 39°45' W 074°07'0 0.0
2018-Jul-06 04:55N 39°45' W 074°07'0 0.0
2018-Jul-06 04:25N 39°45' W 074°07'0 0.0
2018-Jul-06 03:55N 39°45' W 074°07'0 0.0
2018-Jul-06 03:25N 39°45' W 074°07'0 0.0
2018-Jul-06 02:55N 39°45' W 074°07'0 0.0
2018-Jul-06 02:25N 39°45' W 074°07'0 0.0
2018-Jul-06 01:49N 39°45' W 074°07'0 0.0
2018-Jul-06 01:25N 39°45' W 074°07'0 0.0
2018-Jul-06 00:55N 39°45' W 074°07'0 0.0
2018-Jul-06 00:19N 39°45' W 074°07'0 0.0
2018-Jul-05 23:49N 39°45' W 074°07'0 0.0
2018-Jul-05 23:25N 39°45' W 074°07'0 0.0
2018-Jul-05 22:55N 39°45' W 074°07'0 0.0
2018-Jul-05 22:13N 39°45' W 074°07'0 0.0
2018-Jul-05 21:49N 39°45' W 074°07'0 0.0
2018-Jul-05 21:25N 39°45' W 074°07'0 0.0
2018-Jul-05 20:55N 39°45' W 074°07'0 0.0
2018-Jul-05 20:25N 39°45' W 074°07'0 0.0
2018-Jul-05 19:55N 39°45' W 074°07'0 0.0
2018-Jul-05 19:19N 39°45' W 074°07'0 0.0
2018-Jul-05 18:55N 39°45' W 074°07'0 0.0
2018-Jul-05 17:43N 39°45' W 074°07'0 0.0
2018-Jul-05 16:31N 39°45' W 074°07'0 0.0
2018-Jul-05 16:13N 39°45' W 074°07'0 0.0
2018-Jul-05 15:07N 39°45' W 074°07'0 0.0
2018-Jul-05 13:37N 39°45' W 074°07'0 0.0
2018-Jul-05 13:19N 39°45' W 074°07'0 0.0
2018-Jul-05 12:55N 39°45' W 074°07'0 0.0
2018-Jul-05 12:25N 39°45' W 074°07'0 0.0
2018-Jul-05 11:55N 39°45' W 074°07'0 0.0
2018-Jul-05 11:25N 39°45' W 074°07'0 0.0
2018-Jul-05 10:58N 39°45' W 074°07'0 0.0
2018-Jul-05 10:28N 39°45' W 074°07'0 0.0
2018-Jul-05 09:58N 39°45' W 074°07'0 0.0
2018-Jul-05 09:22N 39°45' W 074°07'0 0.0
2018-Jul-05 08:58N 39°45' W 074°07'0 0.0
2018-Jul-05 08:19N 39°45' W 074°07'0 0.0
2018-Jul-05 07:49N 39°45' W 074°07'0 0.0
2018-Jul-05 07:25N 39°45' W 074°07'0 0.0
2018-Jul-05 06:55N 39°45' W 074°07'0 0.0
2018-Jul-05 06:25N 39°45' W 074°07'0 0.0
2018-Jul-05 05:58N 39°45' W 074°07'0 0.0
2018-Jul-05 05:25N 39°45' W 074°07'0 0.0
2018-Jul-05 04:58N 39°45' W 074°07'0 0.0
2018-Jul-05 04:25N 39°45' W 074°07'0 0.0
2018-Jul-05 03:55N 39°45' W 074°07'0 0.0
2018-Jul-05 03:25N 39°45' W 074°07'0 0.0
2018-Jul-05 02:58N 39°45' W 074°07'0 0.0
2018-Jul-05 02:28N 39°45' W 074°07'0 0.0
2018-Jul-05 01:58N 39°45' W 074°07'0 0.0
2018-Jul-05 01:19N 39°45' W 074°07'0 0.0
2018-Jul-05 00:49N 39°45' W 074°07'0 0.0
2018-Jul-05 00:19N 39°45' W 074°07'0 0.0
2018-Jul-04 23:49N 39°45' W 074°07'0 0.0
2018-Jul-04 23:25N 39°45' W 074°07'0 0.0
2018-Jul-04 22:49N 39°45' W 074°07'0 0.0
2018-Jul-04 22:13N 39°45' W 074°07'0 0.0
2018-Jul-04 21:49N 39°45' W 074°07'0 0.0
2018-Jul-04 21:25N 39°45' W 074°07'0 0.0
2018-Jul-04 20:49N 39°45' W 074°07'0 0.0
2018-Jul-04 20:25N 39°45' W 074°07'0 0.0
2018-Jul-04 19:55N 39°45' W 074°07'0 0.0
2018-Jul-04 19:25N 39°45' W 074°07'0 0.0
2018-Jul-04 18:55N 39°45' W 074°07'0 0.0
2018-Jul-04 18:25N 39°45' W 074°07'0 0.0
2018-Jul-04 17:52N 39°45' W 074°07'0 0.0
2018-Jul-04 17:28N 39°45' W 074°07'0 0.0
2018-Jul-04 16:58N 39°45' W 074°07'0 0.0
2018-Jul-04 16:28N 39°45' W 074°07'0 0.0
2018-Jul-04 15:58N 39°45' W 074°07'0 0.0
2018-Jul-04 15:22N 39°45' W 074°07'0 0.0
2018-Jul-04 14:58N 39°45' W 074°07'0 0.0
2018-Jul-04 14:16N 39°45' W 074°07'0 0.0
2018-Jul-04 13:52N 39°45' W 074°07'0 0.0
2018-Jul-04 13:25N 39°45' W 074°07'0 0.0
2018-Jul-04 12:58N 39°45' W 074°07'0 0.0
2018-Jul-04 12:28N 39°45' W 074°07'0 0.0
2018-Jul-04 11:58N 39°45' W 074°07'0 0.0
2018-Jul-04 11:28N 39°45' W 074°07'0 0.0
2018-Jul-04 10:49N 39°45' W 074°07'0 0.0
2018-Jul-04 10:28N 39°45' W 074°07'0 0.0
2018-Jul-04 09:58N 39°45' W 074°07'0 0.0
2018-Jul-04 09:22N 39°45' W 074°07'0 0.0
2018-Jul-04 08:58N 39°45' W 074°07'0 0.0
2018-Jul-04 08:28N 39°45' W 074°07'0 0.0
2018-Jul-04 07:58N 39°45' W 074°07'0 0.0
2018-Jul-04 07:25N 39°45' W 074°07'0 0.0
2018-Jul-04 06:58N 39°45' W 074°07'0 0.0
2018-Jul-04 06:28N 39°45' W 074°07'0 0.0
2018-Jul-04 05:58N 39°45' W 074°07'0 0.0
2018-Jul-04 05:28N 39°45' W 074°07'0 0.0
2018-Jul-04 04:58N 39°45' W 074°07'0 0.0
2018-Jul-04 04:28N 39°45' W 074°07'0 0.0
2018-Jul-04 03:58N 39°45' W 074°07'0 0.0
2018-Jul-04 03:28N 39°45' W 074°07'0 0.0
2018-Jul-04 02:55N 39°45' W 074°07'0 0.0
2018-Jul-04 02:25N 39°45' W 074°07'0 0.0
2018-Jul-04 01:43N 39°45' W 074°07'0 0.0
2018-Jul-04 01:25N 39°45' W 074°07'0 0.0
2018-Jul-04 00:43N 39°45' W 074°07'0 0.0
2018-Jul-04 00:13N 39°45' W 074°07'0 0.0
2018-Jul-03 23:55N 39°45' W 074°07'0 0.0
2018-Jul-03 23:25N 39°45' W 074°07'0 0.0
2018-Jul-03 22:49N 39°45' W 074°07'0 0.0
2018-Jul-03 22:25N 39°45' W 074°07'0 0.0
2018-Jul-03 21:55N 39°45' W 074°07'0 0.0
2018-Jul-03 21:25N 39°45' W 074°07'0 0.0
2018-Jul-03 20:55N 39°45' W 074°07'0 0.0
2018-Jul-03 20:07N 39°45' W 074°07'0 0.0
2018-Jul-03 19:55N 39°45' W 074°07'0 0.0
2018-Jul-03 19:25N 39°45' W 074°07'0 0.0
2018-Jul-03 18:55N 39°45' W 074°07'0 0.0
2018-Jul-03 17:49N 39°45' W 074°07'0 0.0
2018-Jul-03 17:25N 39°45' W 074°07'0 0.0
2018-Jul-03 16:55N 39°45' W 074°07'0 0.0
2018-Jul-03 16:19N 39°45' W 074°07'0 0.0
2018-Jul-03 15:55N 39°45' W 074°07'0 0.0
2018-Jul-03 15:25N 39°45' W 074°07'0 0.0
2018-Jul-03 14:49N 39°45' W 074°07'0 0.0
2018-Jul-03 14:13N 39°45' W 074°07'0 0.0
2018-Jul-03 13:58N 39°45' W 074°07'0 0.0
2018-Jul-03 13:28N 39°45' W 074°07'0 0.0
2018-Jul-03 12:58N 39°45' W 074°07'  

Dump ship's entire track history